createdAt,value
2022-10-06T09:56:49.300Z,68.10
2022-10-06T09:59:39.932Z,68.00
2022-10-06T10:02:21.706Z,67.80
2022-10-06T10:04:55.063Z,67.70
2022-10-06T10:07:27.225Z,67.20
2022-10-06T10:10:11.002Z,67.10
2022-10-06T10:12:37.730Z,67.30
2022-10-06T10:15:23.543Z,67.50
2022-10-06T10:17:51.620Z,67.70
2022-10-06T10:20:59.714Z,67.70
2022-10-06T10:23:33.302Z,67.80
2022-10-06T10:26:15.229Z,67.90
2022-10-06T10:29:04.134Z,67.70
2022-10-06T10:31:33.763Z,68.10
2022-10-06T10:34:35.612Z,67.50
2022-10-06T10:37:08.380Z,67.10
2022-10-06T10:40:07.259Z,66.50
2022-10-06T10:42:45.348Z,66.30
2022-10-06T10:45:42.809Z,65.50
2022-10-06T10:48:33.879Z,65.00
2022-10-06T10:51:20.008Z,64.80
2022-10-06T10:53:49.652Z,64.50
2022-10-06T10:56:19.660Z,64.20
2022-10-06T10:58:52.477Z,63.90
2022-10-06T11:01:35.073Z,63.70
2022-10-06T11:04:02.771Z,63.30
2022-10-06T11:07:02.865Z,63.40
2022-10-06T11:09:47.944Z,63.30
2022-10-06T11:12:26.893Z,62.90
2022-10-06T11:15:18.995Z,62.90
2022-10-06T11:17:49.321Z,62.30
2022-10-06T11:20:28.081Z,61.90
2022-10-06T11:23:23.943Z,61.50
2022-10-06T11:26:09.795Z,61.20
2022-10-06T11:28:41.910Z,60.90
2022-10-06T11:31:16.603Z,61.80
2022-10-06T11:33:52.820Z,61.50
2022-10-06T11:36:34.915Z,60.90
2022-10-06T11:39:20.097Z,60.80
2022-10-06T11:41:58.258Z,60.60
2022-10-06T11:44:44.451Z,60.60
2022-10-06T11:47:35.095Z,60.20
2022-10-06T11:50:02.690Z,60.30
2022-10-06T11:52:29.272Z,60.50
2022-10-06T11:55:17.552Z,60.60
2022-10-06T11:58:23.554Z,60.90
2022-10-06T12:00:54.553Z,60.80
2022-10-06T12:03:31.104Z,60.60
2022-10-06T12:05:57.759Z,60.40
2022-10-06T12:08:39.030Z,60.50
2022-10-06T12:11:38.671Z,59.70
2022-10-06T12:17:19.208Z,58.20
2022-10-06T12:20:11.076Z,56.60
2022-10-06T12:23:03.966Z,58.10
2022-10-06T12:25:51.738Z,56.80
2022-10-06T12:28:42.213Z,54.30
2022-10-06T12:31:20.962Z,52.70
2022-10-06T12:33:48.436Z,51.30
2022-10-06T12:36:22.556Z,50.80
2022-10-06T12:39:21.964Z,51.00
2022-10-06T12:41:59.514Z,51.90
2022-10-06T12:44:37.256Z,52.10
2022-10-06T12:47:19.000Z,51.20
2022-10-06T12:49:47.390Z,52.00
2022-10-06T12:52:30.715Z,52.40
2022-10-06T12:55:27.553Z,53.20
2022-10-06T12:57:54.259Z,52.20
2022-10-06T13:02:55.351Z,46.40
2022-10-06T13:05:22.660Z,45.00
2022-10-06T13:08:07.006Z,43.40
2022-10-06T13:10:34.210Z,42.00
2022-10-06T13:13:01.616Z,39.40
2022-10-06T13:15:41.416Z,37.70
2022-10-06T13:18:08.025Z,37.80
2022-10-06T13:20:50.123Z,37.10
2022-10-06T13:23:22.709Z,37.40
2022-10-06T13:25:52.528Z,35.70
2022-10-06T13:28:26.610Z,35.80
2022-10-06T13:31:16.763Z,35.10
2022-10-06T13:33:45.443Z,34.30
2022-10-06T13:36:12.977Z,35.00
2022-10-06T13:38:41.192Z,35.10
2022-10-06T13:41:19.718Z,34.80
2022-10-06T13:44:11.034Z,35.20
2022-10-06T13:46:42.101Z,33.80
2022-10-06T13:49:24.933Z,35.10
2022-10-06T13:51:54.858Z,35.30
2022-10-06T13:54:54.788Z,36.30
2022-10-06T13:57:45.147Z,38.30
2022-10-06T14:00:12.123Z,40.20
2022-10-06T14:02:39.057Z,41.10
2022-10-06T14:05:27.137Z,41.70
2022-10-06T14:08:01.604Z,42.40
2022-10-06T14:10:35.857Z,42.80
2022-10-06T14:13:08.229Z,43.50
2022-10-06T14:15:55.177Z,43.60
2022-10-06T14:18:35.701Z,43.60
2022-10-06T14:21:28.920Z,42.30
2022-10-06T14:23:56.272Z,42.10
2022-10-06T14:26:29.684Z,42.10
2022-10-06T14:28:57.433Z,42.40
2022-10-06T14:31:26.323Z,42.40
2022-10-06T14:33:54.598Z,42.40
2022-10-06T14:36:36.620Z,42.20
2022-10-06T14:39:05.361Z,41.40
2022-10-06T14:41:32.934Z,40.30
2022-10-06T14:44:02.290Z,40.70
2022-10-06T14:46:29.969Z,41.30
2022-10-06T14:48:57.614Z,41.20
2022-10-06T14:51:26.380Z,42.00
2022-10-06T14:53:57.764Z,42.30
2022-10-06T14:56:27.262Z,42.60
2022-10-06T14:58:54.080Z,42.30
2022-10-06T15:01:24.932Z,41.70
2022-10-06T15:03:53.034Z,43.10
2022-10-06T15:06:38.777Z,42.60
2022-10-06T15:09:06.004Z,42.70
2022-10-06T15:11:32.793Z,43.40
2022-10-06T15:13:59.588Z,44.40
2022-10-06T15:16:29.148Z,43.80
2022-10-06T15:18:58.166Z,43.00
2022-10-06T15:21:25.399Z,42.10
2022-10-06T15:23:56.435Z,39.40
2022-10-06T15:26:41.642Z,37.40
2022-10-06T15:29:08.313Z,36.60
2022-10-06T15:31:37.759Z,37.40
2022-10-06T15:34:12.235Z,35.20
2022-10-06T15:36:41.479Z,34.20
2022-10-06T15:39:13.781Z,34.10
2022-10-06T15:41:42.841Z,35.30
2022-10-06T15:44:11.004Z,36.90
2022-10-06T15:46:42.013Z,38.70
2022-10-06T15:49:13.908Z,40.30
2022-10-06T15:51:48.040Z,41.60
2022-10-06T15:54:22.215Z,42.50
2022-10-06T15:56:53.352Z,43.80
2022-10-06T15:59:24.447Z,44.70
2022-10-06T16:02:00.548Z,45.10
2022-10-06T16:04:40.453Z,45.90
2022-10-06T16:07:07.758Z,46.40
2022-10-06T16:09:47.986Z,46.90
2022-10-06T16:12:17.688Z,47.50
2022-10-06T16:14:45.259Z,47.40
2022-10-06T16:17:12.813Z,47.70
2022-10-06T16:19:40.253Z,48.00
2022-10-06T16:22:08.635Z,48.10
2022-10-06T16:24:35.287Z,48.30
2022-10-06T16:27:01.891Z,48.50
2022-10-06T16:29:29.197Z,48.50
2022-10-06T16:31:55.941Z,49.10
2022-10-06T16:34:23.026Z,49.40
2022-10-06T16:36:49.648Z,49.80
2022-10-06T16:39:18.868Z,49.50
2022-10-06T16:41:45.992Z,49.50
2022-10-06T16:44:12.905Z,50.10
2022-10-06T16:46:40.299Z,50.80
2022-10-06T16:49:08.467Z,51.40
2022-10-06T16:51:37.303Z,52.00
2022-10-06T16:54:06.964Z,53.50
2022-10-06T16:56:42.443Z,53.00
2022-10-06T16:59:13.415Z,53.60
2022-10-06T17:01:40.435Z,54.10
2022-10-06T17:04:18.997Z,54.30
2022-10-06T17:06:51.422Z,54.90
2022-10-06T17:09:23.617Z,55.10
2022-10-06T17:11:59.316Z,55.50
2022-10-06T17:14:27.069Z,55.90
2022-10-06T17:16:56.048Z,56.30
2022-10-06T17:19:25.643Z,56.50
2022-10-06T17:21:57.641Z,56.80
2022-10-06T17:24:27.667Z,57.10
2022-10-06T17:26:54.551Z,57.50
2022-10-06T17:29:22.012Z,57.80
2022-10-06T17:31:53.227Z,58.10
2022-10-06T17:34:23.628Z,58.60
2022-10-06T17:36:51.923Z,59.00
2022-10-06T17:39:24.248Z,59.40
2022-10-06T17:41:52.866Z,59.90
2022-10-06T17:44:26.865Z,60.10
2022-10-06T17:46:56.619Z,60.20
2022-10-06T17:49:24.425Z,60.40
2022-10-06T17:51:52.753Z,60.40
2022-10-06T17:54:22.115Z,60.60
2022-10-06T17:56:51.644Z,60.80
2022-10-06T17:59:22.045Z,60.90
2022-10-06T18:01:49.173Z,60.90
2022-10-06T18:04:16.046Z,61.00
2022-10-06T18:06:44.353Z,61.00
2022-10-06T18:09:12.372Z,61.10
2022-10-06T18:11:41.597Z,61.10
2022-10-06T18:14:16.498Z,61.30
2022-10-06T18:16:46.122Z,61.30
2022-10-06T18:19:18.576Z,61.50
2022-10-06T18:21:47.656Z,61.60
2022-10-06T18:24:20.934Z,61.80
2022-10-06T18:26:51.943Z,62.00
2022-10-06T18:29:21.877Z,62.80
2022-10-06T18:31:50.938Z,62.10
2022-10-06T18:37:04.496Z,62.00
2022-10-06T18:39:31.973Z,62.10
2022-10-06T18:42:03.524Z,62.20
2022-10-06T18:44:48.657Z,62.30
2022-10-06T18:47:34.080Z,62.30
2022-10-06T18:50:00.735Z,62.40
2022-10-06T18:52:27.426Z,62.50
2022-10-06T18:54:54.088Z,62.60
2022-10-06T18:57:25.052Z,62.80
2022-10-06T18:59:53.364Z,63.00
2022-10-06T19:02:20.151Z,62.90
2022-10-06T19:04:47.892Z,63.00
2022-10-06T19:07:14.519Z,63.10
2022-10-06T19:09:46.127Z,63.10
2022-10-06T19:12:13.765Z,63.10
2022-10-06T19:14:46.922Z,63.20
2022-10-06T19:17:14.951Z,63.50
2022-10-06T19:19:50.912Z,63.60
2022-10-06T19:22:19.566Z,63.60
2022-10-06T19:24:48.519Z,63.60
2022-10-06T19:27:20.548Z,63.80
2022-10-06T19:29:52.983Z,63.80
2022-10-06T19:32:23.533Z,64.00
2022-10-06T19:34:50.442Z,64.10
2022-10-06T19:37:17.063Z,64.20
2022-10-06T19:39:46.646Z,63.90
2022-10-06T19:42:33.916Z,64.50
2022-10-06T19:45:00.658Z,64.70
2022-10-06T19:47:28.419Z,64.70
2022-10-06T19:49:58.862Z,65.00
2022-10-06T19:52:27.672Z,65.00
2022-10-06T19:54:54.398Z,65.20
2022-10-06T19:57:21.023Z,65.30
2022-10-06T19:59:47.640Z,65.30
2022-10-06T20:02:14.372Z,65.30
2022-10-06T20:04:41.046Z,65.40
2022-10-06T20:07:09.342Z,65.40
2022-10-06T20:09:36.024Z,65.40
2022-10-06T20:12:02.836Z,65.50
2022-10-06T20:14:30.279Z,65.60
2022-10-06T20:16:57.578Z,65.50
2022-10-06T20:19:25.347Z,65.50
2022-10-06T20:21:52.655Z,65.50
2022-10-06T20:24:25.581Z,65.50
2022-10-06T20:26:53.375Z,65.40
2022-10-06T20:29:28.128Z,65.30
2022-10-06T20:31:58.388Z,65.30
2022-10-06T20:34:31.496Z,65.30
2022-10-06T20:37:02.836Z,65.20
2022-10-06T20:39:50.662Z,65.10
2022-10-06T20:42:19.600Z,65.10
2022-10-06T20:44:46.423Z,65.00
2022-10-06T20:47:13.779Z,65.00
2022-10-06T20:49:42.320Z,65.00
2022-10-06T20:52:09.762Z,64.90
2022-10-06T20:54:37.096Z,64.90
2022-10-06T20:57:05.703Z,64.90
2022-10-06T20:59:35.033Z,65.00
2022-10-06T21:02:01.805Z,64.90
2022-10-06T21:04:28.994Z,64.90
2022-10-06T21:06:55.950Z,65.00
2022-10-06T21:09:24.128Z,65.00
2022-10-06T21:11:51.067Z,64.70
2022-10-06T21:14:18.155Z,64.90
2022-10-06T21:16:46.881Z,64.70
2022-10-06T21:19:15.567Z,65.00
2022-10-06T21:21:45.845Z,65.00
2022-10-06T21:24:12.991Z,65.10
2022-10-06T21:26:42.192Z,65.10
2022-10-06T21:29:11.424Z,65.10
2022-10-06T21:31:38.393Z,65.20
2022-10-06T21:34:05.165Z,65.20
2022-10-06T21:36:32.060Z,65.20
2022-10-06T21:39:01.252Z,65.30
2022-10-06T21:41:31.662Z,65.30
2022-10-06T21:44:07.307Z,65.40
2022-10-06T21:46:49.053Z,65.50
2022-10-06T21:49:23.578Z,65.50
2022-10-06T21:51:52.812Z,65.50
2022-10-06T21:54:20.814Z,65.60
2022-10-06T21:56:47.710Z,65.60
2022-10-06T21:59:14.519Z,65.70
2022-10-06T22:01:46.939Z,65.50
2022-10-06T22:04:14.750Z,65.80
2022-10-06T22:06:42.866Z,65.80
2022-10-06T22:09:14.318Z,66.00
2022-10-06T22:11:41.803Z,66.00
2022-10-06T22:14:11.617Z,66.10
2022-10-06T22:16:38.642Z,66.20
2022-10-06T22:19:07.301Z,66.30
2022-10-06T22:21:42.603Z,66.30
2022-10-06T22:24:12.701Z,66.30
2022-10-06T22:26:41.469Z,66.50
2022-10-06T22:29:10.523Z,66.70
2022-10-06T22:31:39.886Z,66.80
2022-10-06T22:34:07.598Z,66.70
2022-10-06T22:36:34.847Z,66.70
2022-10-06T22:39:01.589Z,66.80
2022-10-06T22:41:29.150Z,66.90
2022-10-06T22:43:57.532Z,67.00
2022-10-06T22:46:32.507Z,67.20
2022-10-06T22:48:59.349Z,67.20
2022-10-06T22:51:26.313Z,67.20
2022-10-06T22:53:58.463Z,67.40
2022-10-06T22:56:26.574Z,67.00
2022-10-06T22:58:53.191Z,67.40
2022-10-06T23:01:20.543Z,67.50
2022-10-06T23:03:47.768Z,67.50
2022-10-06T23:06:16.396Z,67.60
2022-10-06T23:08:43.175Z,67.70
2022-10-06T23:11:15.231Z,67.80
2022-10-06T23:13:43.200Z,67.80
2022-10-06T23:16:13.122Z,67.90
2022-10-06T23:18:41.364Z,67.90
2022-10-06T23:21:10.728Z,67.90
2022-10-06T23:23:37.663Z,68.00
2022-10-06T23:26:05.577Z,68.10
2022-10-06T23:28:32.349Z,67.70
2022-10-06T23:30:59.014Z,68.10
2022-10-06T23:33:25.697Z,68.20
2022-10-06T23:35:59.499Z,68.30
2022-10-06T23:38:26.477Z,68.40
2022-10-06T23:40:53.009Z,68.40
2022-10-06T23:43:19.940Z,68.10
2022-10-06T23:45:46.654Z,68.40
2022-10-06T23:48:13.618Z,68.10
2022-10-06T23:50:40.414Z,68.60
2022-10-06T23:53:07.691Z,68.40
2022-10-06T23:55:34.337Z,68.70
2022-10-06T23:58:00.930Z,68.90
